Terminal Aerodrome Forecast
Issued by NWS

Home | Current Version | Previous Version | Text Only | Print | Product List | Glossary On
Versions: 1 2 3 4 5 6 7 8 9 10 11 12 13 14 15 16 17 18
012
FTUS45 KRIW 181636 AAA
TAFCPR
TAF AMD
KCPR 181636Z 1817/1912 26011KT P6SM SKC
     FM181900 30011KT P6SM SKC
     FM182200 VRB05KT P6SM SCT150
     FM190500 11011KT P6SM SCT200=

USA.gov is the U.S. government's official web portal to all federal, state and local government web resources and services.